Time;durP1;ratioP1;P1;durP2;ratioP2;P2;SDS_P1;SDS_P2;PMS_P1;PMS_P2;Temp;Humidity;BMP_temperature;BMP_pressure;BME280_temperature;BME280_humidity;BME280_pressure;Samples;Min_cycle;Max_cycle;Signal;HPM_P1;HPM_P2
2023/05/24 00:01:06;;;;;;;0.10;0.10;;;12.10;99.90;;;;;;5072021;28;20603;-82
2023/05/24 00:03:33;;;;;;;0.10;0.10;;;12.10;99.90;;;;;;5070241;28;20203;-81
2023/05/24 00:06:00;;;;;;;0.10;0.10;;;12.10;99.90;;;;;;5070433;28;20217;-81
2023/05/24 00:08:26;;;;;;;0.10;0.10;;;12.00;99.90;;;;;;5072174;28;20260;-81
2023/05/24 00:10:51;;;;;;;0.10;0.10;;;12.00;99.90;;;;;;5070018;28;20300;-81
2023/05/24 00:13:17;;;;;;;0.10;0.10;;;12.00;99.90;;;;;;5073159;28;20647;-81
2023/05/24 00:15:43;;;;;;;0.03;0.03;;;12.00;99.90;;;;;;5071065;28;20272;-82
2023/05/24 00:18:09;;;;;;;0.10;0.10;;;11.90;99.90;;;;;;5069111;28;20207;-81
2023/05/24 00:20:34;;;;;;;0.00;0.00;;;11.90;99.90;;;;;;5069680;28;20186;-82
2023/05/24 00:23:00;;;;;;;0.10;0.10;;;11.80;99.90;;;;;;5070316;28;20195;-81
2023/05/24 00:25:25;;;;;;;0.10;0.10;;;11.80;99.90;;;;;;5072148;28;20349;-81
2023/05/24 00:27:51;;;;;;;0.10;0.10;;;11.80;99.90;;;;;;5072876;28;20739;-81
2023/05/24 00:30:16;;;;;;;0.10;0.10;;;11.80;99.90;;;;;;5075787;28;20221;-81
2023/05/24 00:32:42;;;;;;;0.10;0.10;;;11.70;99.90;;;;;;5073577;28;20180;-82
2023/05/24 00:35:08;;;;;;;0.10;0.10;;;11.70;99.90;;;;;;5074562;28;20233;-81
2023/05/24 00:37:33;;;;;;;0.10;0.10;;;11.50;99.90;;;;;;5073168;28;20579;-81
2023/05/24 00:39:59;;;;;;;0.10;0.10;;;11.30;99.90;;;;;;5075151;28;20222;-81
2023/05/24 00:42:24;;;;;;;0.00;0.00;;;11.30;99.90;;;;;;5076083;28;20182;-81
2023/05/24 00:44:50;;;;;;;0.10;0.10;;;11.10;99.90;;;;;;5076219;28;20195;-81
2023/05/24 00:47:16;;;;;;;0.00;0.00;;;10.90;99.90;;;;;;5072288;28;20189;-81
2023/05/24 00:49:41;;;;;;;0.10;0.10;;;10.80;99.90;;;;;;5075606;28;20247;-82
2023/05/24 00:52:07;;;;;;;0.10;0.10;;;10.80;99.90;;;;;;5075358;28;20247;-81
2023/05/24 00:54:33;;;;;;;0.10;0.10;;;10.70;99.90;;;;;;5073338;28;20492;-81
2023/05/24 00:56:59;;;;;;;0.00;0.00;;;10.70;99.90;;;;;;5075690;28;20232;-81
2023/05/24 00:59:25;;;;;;;0.10;0.10;;;10.80;99.90;;;;;;5073209;28;20223;-80
2023/05/24 01:01:51;;;;;;;0.10;0.10;;;10.90;99.90;;;;;;5074819;28;20189;-86
2023/05/24 01:04:19;;;;;;;0.00;0.00;;;11.00;99.90;;;;;;5074211;28;20195;-81
2023/05/24 01:07:32;;;;;;;0.00;0.00;;;11.10;99.90;;;;;;5074977;28;20217;-81
2023/05/24 01:10:09;;;;;;;0.10;0.10;;;11.10;99.90;;;;;;5003624;28;20276;-82
2023/05/24 01:13:07;;;;;;;0.00;0.00;;;10.60;99.90;;;;;;5064969;28;20202;-80
2023/05/24 01:15:44;;;;;;;0.10;0.10;;;10.60;99.90;;;;;;5072534;28;20219;-81
2023/05/24 01:18:24;;;;;;;0.10;0.10;;;10.60;99.90;;;;;;5074104;28;20191;-81
2023/05/24 01:21:01;;;;;;;0.10;0.10;;;10.40;99.90;;;;;;5074479;28;20741;-81
2023/05/24 01:23:58;;;;;;;0.03;0.03;;;10.50;99.90;;;;;;5073177;28;20666;-82
2023/05/24 01:26:31;;;;;;;0.10;0.10;;;10.60;99.90;;;;;;5074540;28;20240;-81
2023/05/24 01:28:58;;;;;;;0.10;0.10;;;10.60;99.90;;;;;;5072076;28;20181;-82
2023/05/24 01:31:24;;;;;;;0.10;0.10;;;10.70;99.90;;;;;;5074495;28;20181;-81
2023/05/24 01:33:50;;;;;;;0.10;0.10;;;10.70;99.90;;;;;;5075732;28;20245;-82
2023/05/24 01:36:15;;;;;;;0.00;0.00;;;10.60;99.90;;;;;;5074051;28;20204;-82
2023/05/24 01:38:41;;;;;;;0.10;0.10;;;10.50;99.90;;;;;;5075128;28;20516;-82
2023/05/24 01:41:13;;;;;;;0.00;0.00;;;10.50;99.90;;;;;;5074306;28;20188;-81
2023/05/24 01:43:47;;;;;;;0.10;0.10;;;10.40;99.90;;;;;;5074389;28;20272;-81
2023/05/24 01:46:24;;;;;;;0.00;0.00;;;10.20;99.90;;;;;;5074548;28;20211;-82
2023/05/24 01:49:19;;;;;;;0.10;0.10;;;10.10;99.90;;;;;;5074312;28;20185;-81
2023/05/24 01:51:52;;;;;;;0.10;0.10;;;9.90;99.90;;;;;;5056225;28;20651;-82
2023/05/24 01:54:22;;;;;;;0.10;0.10;;;9.80;99.90;;;;;;5077060;28;20200;-82
2023/05/24 01:56:50;;;;;;;0.10;0.10;;;9.70;99.90;;;;;;5075657;28;20578;-82
2023/05/24 01:59:17;;;;;;;0.10;0.10;;;9.80;99.90;;;;;;5074496;28;20798;-82
2023/05/24 02:01:43;;;;;;;0.00;0.00;;;9.80;99.90;;;;;;5075290;28;20185;-82
2023/05/24 02:04:09;;;;;;;0.10;0.10;;;9.90;99.90;;;;;;5075667;28;21077;-82
2023/05/24 02:06:34;;;;;;;0.10;0.10;;;10.00;99.90;;;;;;5075317;28;20246;-82
2023/05/24 02:09:00;;;;;;;0.10;0.10;;;9.90;99.90;;;;;;5073307;28;20205;-82
2023/05/24 02:11:26;;;;;;;0.10;0.10;;;9.80;99.90;;;;;;5075664;28;20176;-81
2023/05/24 02:13:51;;;;;;;0.10;0.10;;;9.70;99.90;;;;;;5072303;28;20188;-81
2023/05/24 02:16:17;;;;;;;0.10;0.10;;;9.70;99.90;;;;;;5075283;28;20246;-80
2023/05/24 02:18:43;;;;;;;0.03;0.03;;;9.80;99.90;;;;;;5074384;28;20180;-81
2023/05/24 02:21:09;;;;;;;0.10;0.10;;;9.90;99.90;;;;;;5075548;28;20281;-82
2023/05/24 02:23:35;;;;;;;0.10;0.10;;;9.90;99.90;;;;;;5074354;28;20188;-81
2023/05/24 02:26:00;;;;;;;0.10;0.10;;;9.90;99.90;;;;;;5073280;28;20651;-81
2023/05/24 02:28:27;;;;;;;0.00;0.00;;;9.90;99.90;;;;;;5073975;28;20587;-81
2023/05/24 02:30:52;;;;;;;0.10;0.10;;;10.00;99.90;;;;;;5073843;28;20185;-82
2023/05/24 02:33:18;;;;;;;0.10;0.10;;;10.10;99.90;;;;;;5075126;28;20206;-82
2023/05/24 02:35:43;;;;;;;0.10;0.10;;;10.20;99.90;;;;;;5073430;28;20215;-82
2023/05/24 02:38:09;;;;;;;0.10;0.10;;;10.20;99.90;;;;;;5073766;28;20201;-81
2023/05/24 02:40:34;;;;;;;0.10;0.10;;;10.20;99.90;;;;;;5073312;28;20192;-82
2023/05/24 02:43:00;;;;;;;0.00;0.00;;;10.20;99.90;;;;;;5072256;28;20697;-82
2023/05/24 02:45:25;;;;;;;0.10;0.10;;;10.20;99.90;;;;;;5072397;28;20217;-82
2023/05/24 02:47:51;;;;;;;0.10;0.10;;;10.20;99.90;;;;;;5072553;28;20184;-82
2023/05/24 02:50:16;;;;;;;0.10;0.10;;;10.20;99.90;;;;;;5074861;28;20570;-81
2023/05/24 02:52:42;;;;;;;0.10;0.10;;;10.00;99.90;;;;;;5072977;28;20191;-82
2023/05/24 02:55:08;;;;;;;0.10;0.10;;;9.80;99.90;;;;;;5071439;28;20177;-81
2023/05/24 02:57:33;;;;;;;0.10;0.10;;;9.80;99.90;;;;;;5070934;28;20180;-82
2023/05/24 02:59:59;;;;;;;0.10;0.10;;;9.80;99.90;;;;;;5073498;28;20208;-82
2023/05/24 03:02:27;;;;;;;0.10;0.10;;;9.60;99.90;;;;;;5072039;28;20184;-82
2023/05/24 03:04:53;;;;;;;0.00;0.00;;;9.60;99.90;;;;;;5073621;28;20188;-82
2023/05/24 03:07:18;;;;;;;0.10;0.10;;;9.60;99.90;;;;;;5072064;28;20212;-82
2023/05/24 03:09:44;;;;;;;0.10;0.10;;;9.50;99.90;;;;;;5073347;28;20665;-82
2023/05/24 03:12:09;;;;;;;0.10;0.10;;;9.40;99.90;;;;;;5069862;28;20247;-81
2023/05/24 03:14:35;;;;;;;0.03;0.03;;;9.30;99.90;;;;;;5073934;28;20224;-81
2023/05/24 03:17:01;;;;;;;0.00;0.00;;;9.30;99.90;;;;;;5070388;28;20212;-81
2023/05/24 03:19:29;;;;;;;0.10;0.10;;;9.30;99.90;;;;;;5073029;28;20199;-82
2023/05/24 03:21:55;;;;;;;0.00;0.00;;;9.20;99.90;;;;;;5074043;28;20527;-81
2023/05/24 03:24:20;;;;;;;0.10;0.10;;;9.20;99.90;;;;;;5073494;28;20187;-82
2023/05/24 03:26:46;;;;;;;0.00;0.00;;;9.10;99.90;;;;;;5070819;28;20220;-82
2023/05/24 03:29:11;;;;;;;0.10;0.10;;;9.10;99.90;;;;;;5072654;28;20193;-81
2023/05/24 03:31:37;;;;;;;0.10;0.10;;;9.00;99.90;;;;;;5071579;28;20194;-82
2023/05/24 03:34:02;;;;;;;0.10;0.10;;;8.90;99.90;;;;;;5072058;28;20200;-82
2023/05/24 03:36:28;;;;;;;0.10;0.10;;;8.90;99.90;;;;;;5071857;28;20209;-82
2023/05/24 03:38:54;;;;;;;0.10;0.10;;;8.90;99.90;;;;;;5073605;28;20189;-82
2023/05/24 03:41:23;;;;;;;0.10;0.10;;;8.90;99.90;;;;;;5073164;28;20246;-81
2023/05/24 03:43:49;;;;;;;0.10;0.10;;;9.00;99.90;;;;;;5072460;28;20199;-82
2023/05/24 03:46:14;;;;;;;0.00;0.00;;;9.10;99.90;;;;;;5072301;28;20700;-81
2023/05/24 03:48:40;;;;;;;0.17;0.17;;;9.20;99.90;;;;;;5070608;28;20838;-81
2023/05/24 03:51:08;;;;;;;0.10;0.10;;;9.40;99.90;;;;;;5070293;28;20189;-82
2023/05/24 03:53:33;;;;;;;0.10;0.10;;;9.70;99.90;;;;;;5071716;28;20564;-81
2023/05/24 03:55:59;;;;;;;0.10;0.10;;;9.90;99.90;;;;;;5068727;28;20235;-81
2023/05/24 03:58:24;;;;;;;0.10;0.10;;;10.40;99.90;;;;;;5070453;28;20188;-81
2023/05/24 04:00:50;;;;;;;0.10;0.10;;;10.80;99.90;;;;;;5072078;28;20451;-81
2023/05/24 04:03:18;;;;;;;0.10;0.10;;;11.10;99.90;;;;;;5071206;28;20674;-82
2023/05/24 04:05:44;;;;;;;0.10;0.10;;;11.50;99.90;;;;;;5073231;28;20221;-82
2023/05/24 04:08:11;;;;;;;0.10;0.10;;;11.90;99.90;;;;;;5073218;28;20180;-81
2023/05/24 04:10:36;;;;;;;0.10;0.10;;;12.10;99.90;;;;;;5073090;28;20227;-82
2023/05/24 04:13:02;;;;;;;0.00;0.00;;;12.20;99.90;;;;;;5071600;28;20218;-81
2023/05/24 04:15:28;;;;;;;0.10;0.10;;;12.10;99.90;;;;;;5072195;28;20747;-82
2023/05/24 04:17:54;;;;;;;0.10;0.10;;;12.00;99.90;;;;;;5073632;28;20185;-81
2023/05/24 04:20:24;;;;;;;0.10;0.10;;;11.90;99.90;;;;;;5071235;28;20192;-82
2023/05/24 04:22:50;;;;;;;0.10;0.10;;;11.40;99.90;;;;;;5073469;28;20268;-82
2023/05/24 04:25:15;;;;;;;0.10;0.10;;;11.20;99.90;;;;;;5070313;28;20204;-82
2023/05/24 04:27:41;;;;;;;0.10;0.10;;;11.10;99.90;;;;;;5071830;28;20191;-81
2023/05/24 04:30:08;;;;;;;0.10;0.10;;;11.00;99.90;;;;;;5068475;28;20198;-81
2023/05/24 04:32:33;;;;;;;0.10;0.10;;;11.00;99.90;;;;;;5067903;28;20218;-81
2023/05/24 04:35:01;;;;;;;0.10;0.10;;;10.40;99.90;;;;;;5067517;28;20192;-82
2023/05/24 04:37:28;;;;;;;0.00;0.00;;;10.50;99.90;;;;;;5070778;28;20188;-81
2023/05/24 04:39:54;;;;;;;0.10;0.10;;;10.30;99.90;;;;;;5070757;28;20651;-82
2023/05/24 04:42:20;;;;;;;0.10;0.10;;;10.20;99.90;;;;;;5069248;28;20193;-83
2023/05/24 04:44:45;;;;;;;0.00;0.00;;;10.10;99.90;;;;;;5070933;28;20180;-82
2023/05/24 04:47:11;;;;;;;0.10;0.10;;;10.00;99.90;;;;;;5072315;28;20220;-82
2023/05/24 04:49:37;;;;;;;0.00;0.00;;;9.80;99.90;;;;;;5069335;28;20292;-81
2023/05/24 04:52:03;;;;;;;0.10;0.10;;;9.60;99.90;;;;;;5070946;28;20187;-81
2023/05/24 04:54:29;;;;;;;0.10;0.10;;;9.70;99.90;;;;;;5071364;28;20192;-81
2023/05/24 04:56:54;;;;;;;0.10;0.10;;;9.60;99.90;;;;;;5068415;28;20207;-81
2023/05/24 04:59:20;;;;;;;0.00;0.00;;;9.50;99.90;;;;;;5070272;28;20179;-81
2023/05/24 05:01:46;;;;;;;0.10;0.10;;;9.50;99.90;;;;;;5072260;28;20192;-81
2023/05/24 05:04:11;;;;;;;0.10;0.10;;;9.50;99.90;;;;;;5072562;28;20295;-81
2023/05/24 05:06:38;;;;;;;0.10;0.10;;;9.50;99.90;;;;;;5069468;28;20712;-81
2023/05/24 05:09:09;;;;;;;0.07;0.07;;;9.70;99.90;;;;;;5069171;28;20291;-82
2023/05/24 05:11:37;;;;;;;0.10;0.10;;;9.70;99.90;;;;;;5072685;28;20267;-83
2023/05/24 05:14:03;;;;;;;0.10;0.10;;;9.70;99.90;;;;;;5076017;28;20185;-83
2023/05/24 05:16:29;;;;;;;0.07;0.07;;;9.80;99.90;;;;;;5074344;28;20457;-84
2023/05/24 05:18:54;;;;;;;0.10;0.10;;;9.70;99.90;;;;;;5072000;28;20235;-84
2023/05/24 05:21:20;;;;;;;0.10;0.10;;;9.80;99.90;;;;;;5075688;28;20188;-84
2023/05/24 05:23:46;;;;;;;0.10;0.10;;;9.70;99.90;;;;;;5070247;28;20183;-82
2023/05/24 05:26:11;;;;;;;0.00;0.00;;;9.90;99.90;;;;;;5068385;28;21903;-82
2023/05/24 05:28:37;;;;;;;0.10;0.10;;;10.10;99.90;;;;;;5072341;28;21668;-82
2023/05/24 05:31:03;;;;;;;0.43;0.43;;;10.10;99.90;;;;;;5075418;28;20244;-82
2023/05/24 05:33:33;;;;;;;0.10;0.10;;;10.10;99.90;;;;;;5075505;28;20671;-82
2023/05/24 05:36:01;;;;;;;0.10;0.10;;;9.90;99.90;;;;;;5073920;28;20284;-82
2023/05/24 05:38:26;;;;;;;0.10;0.10;;;9.90;99.90;;;;;;5073328;28;20263;-82
2023/05/24 05:40:52;;;;;;;0.10;0.10;;;9.80;99.90;;;;;;5074838;28;20244;-82
2023/05/24 05:43:17;;;;;;;0.10;0.10;;;9.90;99.90;;;;;;5071341;28;20240;-82
2023/05/24 05:45:43;;;;;;;0.10;0.10;;;9.80;99.90;;;;;;5073736;28;20234;-82
2023/05/24 05:48:08;;;;;;;0.10;0.10;;;9.80;99.90;;;;;;5081366;28;20184;-82
2023/05/24 05:50:34;;;;;;;0.10;0.10;;;9.80;99.90;;;;;;5081145;28;20184;-82
2023/05/24 05:52:59;;;;;;;0.10;0.10;;;9.80;99.90;;;;;;5080793;28;20197;-82
2023/05/24 05:55:25;;;;;;;0.10;0.10;;;10.10;99.90;;;;;;5073339;28;20215;-81
2023/05/24 05:57:50;;;;;;;0.23;0.23;;;10.30;99.90;;;;;;5075614;28;20679;-82
2023/05/24 06:00:16;;;;;;;0.10;0.10;;;10.40;99.90;;;;;;5074406;28;20780;-82
2023/05/24 06:02:42;;;;;;;0.10;0.10;;;10.60;99.90;;;;;;5074667;28;20265;-82
2023/05/24 06:05:08;;;;;;;0.10;0.10;;;10.40;99.90;;;;;;5076257;28;20713;-81
2023/05/24 06:07:36;;;;;;;0.10;0.10;;;10.40;99.90;;;;;;5076443;28;20192;-81
2023/05/24 06:10:01;;;;;;;0.10;0.10;;;10.40;99.90;;;;;;5078325;28;20181;-81
2023/05/24 06:12:27;;;;;;;0.10;0.10;;;10.50;99.90;;;;;;5075582;28;20229;-81
2023/05/24 06:14:56;;;;;;;0.10;0.10;;;10.70;99.90;;;;;;5074901;28;20200;-81
2023/05/24 06:17:23;;;;;;;0.10;0.10;;;10.50;99.90;;;;;;5073078;28;20754;-82
2023/05/24 06:19:50;;;;;;;0.03;0.03;;;10.60;99.90;;;;;;5075311;28;20184;-82
2023/05/24 06:22:16;;;;;;;0.10;0.10;;;10.80;99.90;;;;;;5077255;28;20183;-81
2023/05/24 06:24:42;;;;;;;0.10;0.10;;;10.40;99.90;;;;;;5074081;28;20199;-81
2023/05/24 06:27:08;;;;;;;0.10;0.10;;;10.50;99.90;;;;;;5075585;28;20208;-82
2023/05/24 06:29:33;;;;;;;0.10;0.10;;;10.60;99.90;;;;;;5075077;28;20189;-82
2023/05/24 06:31:59;;;;;;;0.10;0.10;;;10.70;99.90;;;;;;5076474;28;20207;-82
2023/05/24 06:34:24;;;;;;;0.10;0.10;;;10.50;99.90;;;;;;5069489;28;20216;-82
2023/05/24 06:36:51;;;;;;;0.10;0.10;;;10.80;99.90;;;;;;5073039;28;20232;-83
2023/05/24 06:39:17;;;;;;;0.10;0.10;;;11.00;99.90;;;;;;5074605;28;20206;-82
2023/05/24 06:41:44;;;;;;;0.10;0.10;;;10.80;99.90;;;;;;5074129;28;20191;-83
2023/05/24 06:44:10;;;;;;;0.10;0.10;;;11.10;99.90;;;;;;5076594;28;20563;-82
2023/05/24 06:46:36;;;;;;;0.10;0.10;;;11.10;99.90;;;;;;5075180;28;20218;-83
2023/05/24 06:49:02;;;;;;;0.10;0.10;;;11.00;99.90;;;;;;5077817;28;20211;-85
2023/05/24 06:51:27;;;;;;;0.10;0.10;;;11.10;99.90;;;;;;5073361;28;20267;-82
2023/05/24 06:53:53;;;;;;;0.10;0.10;;;11.10;99.90;;;;;;5076324;28;20181;-82
2023/05/24 06:56:19;;;;;;;0.10;0.10;;;11.10;99.90;;;;;;5070785;28;20653;-83
2023/05/24 06:58:44;;;;;;;0.20;0.20;;;11.40;99.90;;;;;;5071356;28;20181;-82
2023/05/24 07:01:10;;;;;;;0.10;0.10;;;11.40;99.90;;;;;;5068989;28;20275;-81
2023/05/24 07:03:36;;;;;;;0.10;0.10;;;11.40;99.90;;;;;;5073040;28;20998;-84
2023/05/24 07:06:02;;;;;;;0.10;0.10;;;11.60;99.90;;;;;;5076650;28;20274;-83
2023/05/24 07:08:28;;;;;;;0.10;0.10;;;11.40;99.90;;;;;;5079609;28;20202;-83
2023/05/24 07:10:54;;;;;;;0.10;0.10;;;11.70;99.90;;;;;;5079591;28;20677;-82
2023/05/24 07:13:20;;;;;;;0.10;0.10;;;12.00;99.90;;;;;;5076925;28;20192;-83
2023/05/24 07:15:46;;;;;;;0.00;0.00;;;12.10;99.90;;;;;;5077589;28;20708;-83
2023/05/24 07:18:12;;;;;;;0.10;0.10;;;12.10;99.90;;;;;;5078782;28;20200;-83
2023/05/24 07:20:38;;;;;;;0.10;0.10;;;12.30;99.90;;;;;;5078598;28;20189;-83
2023/05/24 07:23:03;;;;;;;0.10;0.10;;;12.40;99.90;;;;;;5079435;28;20192;-83
2023/05/24 07:25:30;;;;;;;0.00;0.00;;;12.60;99.90;;;;;;5078081;28;20208;-83
2023/05/24 07:27:55;;;;;;;0.10;0.10;;;13.30;99.90;;;;;;5078483;28;20189;-82
2023/05/24 07:30:21;;;;;;;0.10;0.10;;;13.40;99.90;;;;;;5083716;28;20185;-83
2023/05/24 07:32:47;;;;;;;0.10;0.10;;;13.40;99.90;;;;;;5083049;28;20553;-83
2023/05/24 07:35:12;;;;;;;0.00;0.00;;;13.20;99.90;;;;;;5077355;28;20653;-83
2023/05/24 07:37:39;;;;;;;0.10;0.10;;;13.70;99.90;;;;;;5081196;28;20864;-83
2023/05/24 07:40:09;;;;;;;0.10;0.10;;;13.90;99.90;;;;;;5082058;28;20722;-83
2023/05/24 07:42:34;;;;;;;0.10;0.10;;;13.10;99.90;;;;;;5077479;28;20181;-83
2023/05/24 07:45:02;;;;;;;0.10;0.10;;;13.50;99.90;;;;;;5076967;28;20212;-85
2023/05/24 07:47:29;;;;;;;0.10;0.10;;;13.80;99.90;;;;;;5072696;28;20202;-84
2023/05/24 07:49:55;;;;;;;0.10;0.10;;;13.50;99.90;;;;;;5070916;28;20186;-84
2023/05/24 07:52:22;;;;;;;0.10;0.10;;;13.50;99.90;;;;;;5072867;28;20251;-84
2023/05/24 07:54:47;;;;;;;0.10;0.10;;;13.90;99.90;;;;;;5075004;28;20209;-84
2023/05/24 07:57:13;;;;;;;0.10;0.10;;;14.00;99.90;;;;;;5072165;28;20728;-84
2023/05/24 07:59:39;;;;;;;0.10;0.10;;;14.80;99.90;;;;;;5072919;28;20183;-85
2023/05/24 08:02:05;;;;;;;0.10;0.10;;;14.80;99.90;;;;;;5071466;28;20234;-85
2023/05/24 08:04:34;;;;;;;0.10;0.10;;;15.60;99.90;;;;;;5071564;28;20917;-83
2023/05/24 08:07:01;;;;;;;0.10;0.10;;;16.40;99.90;;;;;;5071481;28;20258;-83
2023/05/24 08:09:28;;;;;;;0.10;0.10;;;16.60;99.90;;;;;;5071595;28;20270;-83
2023/05/24 08:11:55;;;;;;;0.10;0.10;;;16.40;99.90;;;;;;5072648;28;20181;-83
2023/05/24 08:14:21;;;;;;;0.10;0.10;;;15.80;99.90;;;;;;5072288;28;20245;-81
2023/05/24 08:16:46;;;;;;;0.10;0.10;;;15.90;99.90;;;;;;5071887;28;20674;-82
2023/05/24 08:19:12;;;;;;;0.10;0.10;;;15.70;99.90;;;;;;5071690;28;20663;-83
2023/05/24 08:21:37;;;;;;;0.10;0.10;;;14.90;99.90;;;;;;5070971;28;20220;-82
2023/05/24 08:24:03;;;;;;;0.10;0.10;;;14.60;99.90;;;;;;5070524;28;20212;-83
2023/05/24 08:26:28;;;;;;;0.10;0.10;;;14.70;99.90;;;;;;5069837;28;20222;-82
2023/05/24 08:28:54;;;;;;;0.10;0.10;;;14.10;99.90;;;;;;5074829;28;20192;-81
2023/05/24 08:31:20;;;;;;;0.10;0.10;;;13.50;99.90;;;;;;5074248;28;20179;-81
2023/05/24 08:33:49;;;;;;;0.20;0.20;;;13.30;99.90;;;;;;5075354;28;20252;-81
2023/05/24 08:36:15;;;;;;;0.10;0.10;;;13.10;99.90;;;;;;5073911;28;20264;-82
2023/05/24 08:38:40;;;;;;;0.10;0.10;;;12.90;99.90;;;;;;5079505;28;20232;-82
2023/05/24 08:41:07;;;;;;;0.10;0.10;;;13.00;99.90;;;;;;5079971;28;20572;-81
2023/05/24 08:43:33;;;;;;;0.10;0.10;;;13.10;99.90;;;;;;5080277;28;20567;-82
2023/05/24 08:46:01;;;;;;;0.10;0.10;;;13.30;99.90;;;;;;5079535;28;20201;-81
2023/05/24 08:48:27;;;;;;;0.10;0.10;;;12.80;99.90;;;;;;5080157;28;20239;-81
2023/05/24 08:50:53;;;;;;;0.03;0.03;;;12.90;99.90;;;;;;5082608;28;20301;-81
2023/05/24 08:53:20;;;;;;;0.10;0.10;;;13.20;99.90;;;;;;5080833;28;20181;-81
2023/05/24 08:55:48;;;;;;;0.10;0.10;;;13.30;99.90;;;;;;5081246;28;20211;-81
2023/05/24 08:58:15;;;;;;;0.10;0.10;;;13.50;99.90;;;;;;5081220;28;20217;-81
2023/05/24 09:00:41;;;;;;;0.10;0.10;;;13.70;99.90;;;;;;5078712;28;20205;-82
2023/05/24 09:03:07;;;;;;;0.10;0.10;;;13.60;99.90;;;;;;5079932;28;20192;-81
2023/05/24 09:05:33;;;;;;;0.10;0.10;;;12.70;99.90;;;;;;5082565;28;20216;-80
2023/05/24 09:08:00;;;;;;;0.10;0.10;;;13.20;99.90;;;;;;5077957;28;20245;-81
2023/05/24 09:10:27;;;;;;;0.10;0.10;;;12.90;99.90;;;;;;5078083;28;20182;-81
2023/05/24 09:12:56;;;;;;;0.10;0.10;;;12.90;99.90;;;;;;5080315;28;20967;-81
2023/05/24 09:15:22;;;;;;;0.10;0.10;;;13.20;99.90;;;;;;5079338;28;20638;-81
2023/05/24 09:17:47;;;;;;;0.10;0.10;;;13.20;99.90;;;;;;5079181;28;20192;-81
2023/05/24 09:20:13;;;;;;;0.10;0.10;;;13.10;99.90;;;;;;5079343;28;20337;-82
2023/05/24 09:22:41;;;;;;;0.10;0.10;;;13.10;99.90;;;;;;5082911;28;20189;-80
2023/05/24 09:25:08;;;;;;;0.10;0.10;;;13.40;99.90;;;;;;5084207;28;20175;-81
2023/05/24 09:27:35;;;;;;;0.10;0.10;;;13.30;99.90;;;;;;5079886;28;20817;-81
2023/05/24 09:30:04;;;;;;;0.10;0.10;;;13.70;99.90;;;;;;5079571;28;20522;-81
2023/05/24 09:32:30;;;;;;;0.10;0.10;;;14.10;99.90;;;;;;5077441;28;20192;-81
2023/05/24 09:34:57;;;;;;;0.00;0.00;;;14.40;99.90;;;;;;5080022;28;20170;-81
2023/05/24 09:37:28;;;;;;;0.10;0.10;;;14.40;99.90;;;;;;5078884;28;20211;-81
2023/05/24 09:39:54;;;;;;;0.10;0.10;;;14.60;99.90;;;;;;5079907;28;20174;-80
2023/05/24 09:42:23;;;;;;;0.10;0.10;;;14.70;99.90;;;;;;5078495;28;20198;-80
2023/05/24 09:45:00;;;;;;;0.00;0.00;;;14.20;99.90;;;;;;5076071;28;20256;-81
2023/05/24 09:47:33;;;;;;;0.10;0.10;;;14.40;99.90;;;;;;5090220;28;20292;-80
2023/05/24 09:50:03;;;;;;;0.10;0.10;;;14.80;99.90;;;;;;5078694;28;20189;-81
2023/05/24 09:52:29;;;;;;;0.10;0.10;;;15.10;99.90;;;;;;5080173;28;20192;-81
2023/05/24 09:54:54;;;;;;;0.10;0.10;;;15.30;99.90;;;;;;5081368;28;20188;-81
2023/05/24 09:57:24;;;;;;;0.10;0.10;;;14.40;99.90;;;;;;5082935;28;20290;-81
2023/05/24 09:59:51;;;;;;;0.10;0.10;;;15.10;99.90;;;;;;5075823;28;20194;-81
2023/05/24 10:02:19;;;;;;;0.10;0.10;;;15.10;99.90;;;;;;5080659;28;20176;-81
2023/05/24 10:04:45;;;;;;;0.10;0.10;;;14.90;99.90;;;;;;5078000;28;20681;-81
2023/05/24 10:07:11;;;;;;;0.10;0.10;;;15.20;99.90;;;;;;5077116;28;20205;-81
2023/05/24 10:09:38;;;;;;;0.10;0.10;;;15.50;99.90;;;;;;5078832;28;20187;-81
2023/05/24 10:12:07;;;;;;;0.10;0.10;;;15.80;99.90;;;;;;5077114;28;20184;-81
2023/05/24 10:14:37;;;;;;;1.63;1.57;;;15.30;99.90;;;;;;5079026;28;20186;-81
2023/05/24 10:17:04;;;;;;;0.10;0.10;;;14.90;99.90;;;;;;5072548;28;20200;-81
2023/05/24 10:19:31;;;;;;;0.10;0.10;;;15.90;99.90;;;;;;5075118;28;20242;-81
2023/05/24 10:21:59;;;;;;;0.10;0.10;;;16.00;99.90;;;;;;5077665;28;20221;-81
2023/05/24 10:24:31;;;;;;;0.10;0.10;;;15.80;99.90;;;;;;5078016;28;20246;-81
2023/05/24 10:26:59;;;;;;;0.10;0.10;;;15.90;99.90;;;;;;5078169;28;20204;-81
2023/05/24 10:30:10;;;;;;;0.10;0.10;;;16.80;99.90;;;;;;5078181;28;20200;-81
2023/05/24 10:32:37;;;;;;;0.10;0.10;;;17.50;99.90;;;;;;5076538;28;20211;-81
2023/05/24 10:35:06;;;;;;;0.10;0.10;;;16.00;99.90;;;;;;5077864;28;20173;-82
2023/05/24 10:37:32;;;;;;;0.10;0.10;;;15.20;99.90;;;;;;5078535;28;20181;-81
2023/05/24 10:39:59;;;;;;;0.10;0.10;;;15.60;99.90;;;;;;5077644;28;20181;-81
2023/05/24 10:42:25;;;;;;;0.10;0.10;;;15.80;99.90;;;;;;5077974;28;20184;-81
2023/05/24 10:44:55;;;;;;;0.10;0.10;;;15.10;99.90;;;;;;5079427;28;20180;-81
2023/05/24 10:47:27;;;;;;;0.10;0.10;;;15.80;99.90;;;;;;5074061;28;20204;-81
2023/05/24 10:49:58;;;;;;;0.10;0.10;;;15.30;99.90;;;;;;5078360;28;20176;-81
2023/05/24 10:52:36;;;;;;;0.10;0.10;;;15.50;99.90;;;;;;5075962;28;20181;-81
2023/05/24 10:55:03;;;;;;;0.10;0.10;;;16.20;99.90;;;;;;5082696;28;20219;-81
2023/05/24 10:57:30;;;;;;;0.10;0.10;;;16.50;99.90;;;;;;5083338;28;20637;-81
2023/05/24 10:59:57;;;;;;;0.10;0.10;;;15.30;99.90;;;;;;5078712;28;20277;-81
2023/05/24 11:02:27;;;;;;;0.30;0.30;;;15.70;99.90;;;;;;5080337;28;20184;-81
2023/05/24 11:04:52;;;;;;;0.40;0.40;;;16.10;99.90;;;;;;5077609;28;20208;-81
2023/05/24 11:07:18;;;;;;;0.10;0.10;;;15.90;99.90;;;;;;5078213;28;20225;-81
2023/05/24 11:09:51;;;;;;;0.10;0.10;;;16.00;99.90;;;;;;5078590;28;20202;-81
2023/05/24 11:12:19;;;;;;;0.10;0.10;;;16.20;99.90;;;;;;5079057;28;20185;-81
2023/05/24 11:14:51;;;;;;;0.10;0.10;;;16.70;99.90;;;;;;5077818;28;20613;-81
2023/05/24 11:17:21;;;;;;;0.10;0.10;;;16.80;99.90;;;;;;5079882;28;20296;-81
2023/05/24 11:19:52;;;;;;;0.10;0.10;;;16.50;99.90;;;;;;5076997;28;20250;-81
2023/05/24 11:22:25;;;;;;;0.10;0.10;;;17.30;99.90;;;;;;5077134;28;20184;-81
2023/05/24 11:24:52;;;;;;;0.10;0.10;;;17.00;99.90;;;;;;5074785;28;20263;-81
2023/05/24 11:27:17;;;;;;;0.10;0.10;;;16.00;99.90;;;;;;5076764;28;20584;-82
2023/05/24 11:29:44;;;;;;;0.10;0.10;;;16.90;99.90;;;;;;5074145;28;20185;-81
2023/05/24 11:32:17;;;;;;;0.10;0.10;;;16.10;99.90;;;;;;5077127;28;20184;-82
2023/05/24 11:34:45;;;;;;;0.10;0.10;;;16.60;99.90;;;;;;5078958;28;20534;-81
2023/05/24 11:37:11;;;;;;;0.10;0.10;;;16.90;99.90;;;;;;5077836;28;20207;-82
2023/05/24 11:39:37;;;;;;;0.10;0.10;;;16.10;99.90;;;;;;5075717;28;20193;-81
2023/05/24 11:42:05;;;;;;;0.10;0.10;;;16.60;99.90;;;;;;5076910;28;20185;-81
2023/05/24 11:44:31;;;;;;;0.10;0.10;;;15.90;99.90;;;;;;5075723;28;20186;-82
2023/05/24 11:47:01;;;;;;;0.10;0.10;;;15.50;99.90;;;;;;5075000;28;20208;-81
2023/05/24 11:49:27;;;;;;;0.10;0.10;;;15.10;99.90;;;;;;5075488;28;20201;-81
2023/05/24 11:51:57;;;;;;;0.10;0.10;;;15.50;99.90;;;;;;5078617;28;20192;-81
2023/05/24 11:54:24;;;;;;;0.10;0.10;;;15.80;99.90;;;;;;5073532;28;20230;-81
2023/05/24 11:56:51;;;;;;;0.10;0.10;;;16.50;99.90;;;;;;5074187;28;20772;-81
2023/05/24 11:59:25;;;;;;;0.10;0.10;;;17.20;99.90;;;;;;5076228;28;20184;-82
2023/05/24 12:02:00;;;;;;;0.10;0.10;;;17.20;99.90;;;;;;5076162;28;20213;-81
2023/05/24 12:04:26;;;;;;;0.10;0.10;;;17.00;99.90;;;;;;5077371;28;20200;-81
2023/05/24 12:06:53;;;;;;;0.10;0.10;;;15.90;99.90;;;;;;5079744;28;20208;-81
2023/05/24 12:09:19;;;;;;;0.10;0.10;;;16.10;99.90;;;;;;5081751;28;20177;-81
2023/05/24 12:11:49;;;;;;;0.10;0.10;;;16.50;99.90;;;;;;5082466;28;20180;-81
2023/05/24 12:14:29;;;;;;;0.10;0.10;;;16.20;99.90;;;;;;5077736;28;20188;-81
2023/05/24 12:16:56;;;;;;;0.10;0.10;;;16.50;99.90;;;;;;5078013;28;20207;-81
2023/05/24 12:19:24;;;;;;;0.10;0.10;;;17.00;99.90;;;;;;5075938;28;20189;-82
2023/05/24 12:21:54;;;;;;;0.10;0.10;;;17.30;99.90;;;;;;5079213;28;20193;-81
2023/05/24 12:24:19;;;;;;;0.10;0.10;;;17.10;99.90;;;;;;5079793;28;20188;-82
2023/05/24 12:26:49;;;;;;;0.10;0.10;;;16.30;99.90;;;;;;5082870;28;20218;-82
2023/05/24 12:29:15;;;;;;;0.10;0.10;;;15.60;99.90;;;;;;5081835;28;20191;-82
2023/05/24 12:31:42;;;;;;;0.10;0.10;;;16.00;99.90;;;;;;5081612;28;20283;-81
2023/05/24 12:34:15;;;;;;;0.10;0.10;;;15.70;99.90;;;;;;5081140;28;20184;-81
2023/05/24 12:36:42;;;;;;;0.10;0.10;;;15.70;99.90;;;;;;5081152;28;20263;-81
2023/05/24 12:39:21;;;;;;;0.10;0.10;;;15.70;99.90;;;;;;5082922;28;20180;-81
2023/05/24 12:41:51;;;;;;;0.10;0.10;;;16.00;99.90;;;;;;5083452;28;20262;-81
2023/05/24 12:44:20;;;;;;;0.10;0.10;;;16.40;99.90;;;;;;5080731;28;20189;-81
2023/05/24 12:46:45;;;;;;;0.10;0.10;;;16.30;99.90;;;;;;5080155;28;20228;-82
2023/05/24 12:49:11;;;;;;;0.10;0.10;;;16.30;99.90;;;;;;5080428;28;20184;-82